sensor_id;sensor_type;location;lat;lon;timestamp;temperature;humidity
66871;DHT22;53780;44.998;9.926;2022-08-21T05:47:12;21.11;71.07
66871;DHT22;53780;44.998;9.926;2022-08-21T05:50:17;23.09;66.13
66871;DHT22;53780;44.998;9.926;2022-08-21T05:53:22;25.56;57.47
66871;DHT22;53780;44.998;9.926;2022-08-21T05:56:26;27.08;52.45
66871;DHT22;53780;44.998;9.926;2022-08-21T05:59:30;27.98;51.13
66871;DHT22;53780;44.998;9.926;2022-08-21T06:02:34;28.58;49.34
66871;DHT22;53780;44.998;9.926;2022-08-21T06:05:40;29.26;48.09
66871;DHT22;53780;44.998;9.926;2022-08-21T06:08:44;29.98;46.43
66871;DHT22;53780;44.998;9.926;2022-08-21T06:11:48;30.30;45.77
66871;DHT22;53780;44.998;9.926;2022-08-21T06:14:52;30.69;45.07
66871;DHT22;53780;44.998;9.926;2022-08-21T06:17:56;30.96;43.36
66871;DHT22;53780;44.998;9.926;2022-08-21T06:21:00;32.21;41.58
66871;DHT22;53780;44.998;9.926;2022-08-21T06:24:05;30.10;45.18
66871;DHT22;53780;44.998;9.926;2022-08-21T06:27:09;30.10;45.71
66871;DHT22;53780;44.998;9.926;2022-08-21T06:30:13;29.27;48.26
66871;DHT22;53780;44.998;9.926;2022-08-21T06:33:17;28.75;49.63
66871;DHT22;53780;44.998;9.926;2022-08-21T06:36:21;28.76;50.38
66871;DHT22;53780;44.998;9.926;2022-08-21T06:39:25;28.75;50.66
66871;DHT22;53780;44.998;9.926;2022-08-21T06:42:28;28.49;48.99
66871;DHT22;53780;44.998;9.926;2022-08-21T06:45:32;28.48;50.01
66871;DHT22;53780;44.998;9.926;2022-08-21T06:48:36;28.66;49.74
66871;DHT22;53780;44.998;9.926;2022-08-21T06:51:40;28.51;50.44
66871;DHT22;53780;44.998;9.926;2022-08-21T06:54:44;28.83;51.45
66871;DHT22;53780;44.998;9.926;2022-08-21T06:57:49;28.61;48.90
66871;DHT22;53780;44.998;9.926;2022-08-21T07:00:52;28.99;49.71
66871;DHT22;53780;44.998;9.926;2022-08-21T07:03:56;29.54;48.75
66871;DHT22;53780;44.998;9.926;2022-08-21T07:07:00;29.81;47.56
66871;DHT22;53780;44.998;9.926;2022-08-21T07:10:04;29.64;48.99
66871;DHT22;53780;44.998;9.926;2022-08-21T07:13:08;29.82;48.65
66871;DHT22;53780;44.998;9.926;2022-08-21T07:16:12;30.06;48.86
66871;DHT22;53780;44.998;9.926;2022-08-21T07:19:17;30.10;50.31
66871;DHT22;53780;44.998;9.926;2022-08-21T07:22:21;30.49;47.62
66871;DHT22;53780;44.998;9.926;2022-08-21T07:25:26;30.48;47.08
66871;DHT22;53780;44.998;9.926;2022-08-21T07:28:31;29.92;46.75
66871;DHT22;53780;44.998;9.926;2022-08-21T07:31:35;30.45;45.99
66871;DHT22;53780;44.998;9.926;2022-08-21T07:34:39;30.68;47.52
66871;DHT22;53780;44.998;9.926;2022-08-21T07:37:44;30.67;45.72
66871;DHT22;53780;44.998;9.926;2022-08-21T07:40:49;31.00;46.57
66871;DHT22;53780;44.998;9.926;2022-08-21T07:43:56;31.11;44.54
66871;DHT22;53780;44.998;9.926;2022-08-21T07:47:01;31.02;46.12
66871;DHT22;53780;44.998;9.926;2022-08-21T07:50:06;30.98;44.76
66871;DHT22;53780;44.998;9.926;2022-08-21T07:53:10;30.38;46.88
66871;DHT22;53780;44.998;9.926;2022-08-21T07:56:14;30.45;45.36
66871;DHT22;53780;44.998;9.926;2022-08-21T07:59:18;30.45;46.96
66871;DHT22;53780;44.998;9.926;2022-08-21T08:02:27;30.49;45.21
66871;DHT22;53780;44.998;9.926;2022-08-21T08:05:32;30.47;46.81
66871;DHT22;53780;44.998;9.926;2022-08-21T08:08:36;30.28;48.48
66871;DHT22;53780;44.998;9.926;2022-08-21T08:11:41;29.95;46.92
66871;DHT22;53780;44.998;9.926;2022-08-21T08:14:47;30.24;48.12
66871;DHT22;53780;44.998;9.926;2022-08-21T08:17:50;30.14;46.49
66871;DHT22;53780;44.998;9.926;2022-08-21T08:20:55;30.03;47.83
66871;DHT22;53780;44.998;9.926;2022-08-21T08:23:59;30.48;45.17
66871;DHT22;53780;44.998;9.926;2022-08-21T08:27:03;30.84;46.99
66871;DHT22;53780;44.998;9.926;2022-08-21T08:30:09;30.60;46.19
66871;DHT22;53780;44.998;9.926;2022-08-21T08:33:13;30.93;46.24
66871;DHT22;53780;44.998;9.926;2022-08-21T08:36:18;31.47;45.49
66871;DHT22;53780;44.998;9.926;2022-08-21T08:39:22;31.82;43.47
66871;DHT22;53780;44.998;9.926;2022-08-21T08:42:32;31.81;43.02
66871;DHT22;53780;44.998;9.926;2022-08-21T08:45:39;31.94;45.48
66871;DHT22;53780;44.998;9.926;2022-08-21T08:49:09;31.87;43.31
66871;DHT22;53780;44.998;9.926;2022-08-21T08:52:28;31.50;42.86
66871;DHT22;53780;44.998;9.926;2022-08-21T08:55:39;31.80;44.39
66871;DHT22;53780;44.998;9.926;2022-08-21T08:58:44;31.75;43.34
66871;DHT22;53780;44.998;9.926;2022-08-21T09:01:48;31.34;43.70
66871;DHT22;53780;44.998;9.926;2022-08-21T09:04:53;31.37;45.71
66871;DHT22;53780;44.998;9.926;2022-08-21T09:11:29;32.06;44.59
66871;DHT22;53780;44.998;9.926;2022-08-21T09:28:14;32.77;44.06
66871;DHT22;53780;44.998;9.926;2022-08-21T09:31:26;32.52;45.60
66871;DHT22;53780;44.998;9.926;2022-08-21T09:34:31;32.83;41.66
66871;DHT22;53780;44.998;9.926;2022-08-21T09:40:56;33.12;40.63
66871;DHT22;53780;44.998;9.926;2022-08-21T09:44:01;33.35;42.23
66871;DHT22;53780;44.998;9.926;2022-08-21T09:47:06;33.35;39.29
66871;DHT22;53780;44.998;9.926;2022-08-21T09:50:17;32.70;41.52
66871;DHT22;53780;44.998;9.926;2022-08-21T09:53:25;32.80;41.09
66871;DHT22;53780;44.998;9.926;2022-08-21T09:56:37;32.56;41.43
66871;DHT22;53780;44.998;9.926;2022-08-21T10:03:25;33.28;39.59
66871;DHT22;53780;44.998;9.926;2022-08-21T10:06:29;33.79;39.24
66871;DHT22;53780;44.998;9.926;2022-08-21T10:09:33;33.90;39.27
66871;DHT22;53780;44.998;9.926;2022-08-21T10:12:53;33.10;38.36
66871;DHT22;53780;44.998;9.926;2022-08-21T10:22:46;33.60;39.93
66871;DHT22;53780;44.998;9.926;2022-08-21T10:26:02;32.95;40.11
66871;DHT22;53780;44.998;9.926;2022-08-21T10:52:59;34.18;37.18
66871;DHT22;53780;44.998;9.926;2022-08-21T10:59:56;33.39;38.49
66871;DHT22;53780;44.998;9.926;2022-08-21T11:03:35;32.63;39.39
66871;DHT22;53780;44.998;9.926;2022-08-21T11:06:47;33.01;39.11
66871;DHT22;53780;44.998;9.926;2022-08-21T11:09:55;33.92;36.20
66871;DHT22;53780;44.998;9.926;2022-08-21T11:13:11;34.69;34.68
66871;DHT22;53780;44.998;9.926;2022-08-21T11:19:54;35.40;32.77
66871;DHT22;53780;44.998;9.926;2022-08-21T11:26:50;35.48;33.17
66871;DHT22;53780;44.998;9.926;2022-08-21T11:29:57;35.36;33.34
66871;DHT22;53780;44.998;9.926;2022-08-21T11:33:20;35.31;33.77
66871;DHT22;53780;44.998;9.926;2022-08-21T11:50:12;34.82;34.80
66871;DHT22;53780;44.998;9.926;2022-08-21T11:53:32;34.10;37.25
66871;DHT22;53780;44.998;9.926;2022-08-21T11:56:46;34.24;35.63
66871;DHT22;53780;44.998;9.926;2022-08-21T12:00:17;34.92;35.11
66871;DHT22;53780;44.998;9.926;2022-08-21T12:03:37;34.89;33.92
66871;DHT22;53780;44.998;9.926;2022-08-21T12:06:42;34.49;34.13
66871;DHT22;53780;44.998;9.926;2022-08-21T12:09:55;34.73;33.78
66871;DHT22;53780;44.998;9.926;2022-08-21T12:13:08;34.82;33.63
66871;DHT22;53780;44.998;9.926;2022-08-21T12:16:15;33.65;36.03
66871;DHT22;53780;44.998;9.926;2022-08-21T12:22:36;33.79;35.77
66871;DHT22;53780;44.998;9.926;2022-08-21T12:25:44;33.98;35.48
66871;DHT22;53780;44.998;9.926;2022-08-21T12:28:49;34.04;35.12
66871;DHT22;53780;44.998;9.926;2022-08-21T12:31:58;33.77;35.25
66871;DHT22;53780;44.998;9.926;2022-08-21T12:35:10;33.38;36.03
66871;DHT22;53780;44.998;9.926;2022-08-21T12:38:29;33.05;35.89
66871;DHT22;53780;44.998;9.926;2022-08-21T12:41:47;32.86;35.99
66871;DHT22;53780;44.998;9.926;2022-08-21T12:44:59;33.00;36.92
66871;DHT22;53780;44.998;9.926;2022-08-21T12:51:32;33.15;36.42
66871;DHT22;53780;44.998;9.926;2022-08-21T12:54:41;33.21;35.32
66871;DHT22;53780;44.998;9.926;2022-08-21T12:57:46;32.91;34.76
66871;DHT22;53780;44.998;9.926;2022-08-21T13:01:00;32.78;35.37
66871;DHT22;53780;44.998;9.926;2022-08-21T13:04:12;32.60;35.74
66871;DHT22;53780;44.998;9.926;2022-08-21T13:07:24;32.60;37.16
66871;DHT22;53780;44.998;9.926;2022-08-21T13:10:31;32.78;36.78
66871;DHT22;53780;44.998;9.926;2022-08-21T13:13:36;32.88;37.40
66871;DHT22;53780;44.998;9.926;2022-08-21T13:16:40;32.98;38.18
66871;DHT22;53780;44.998;9.926;2022-08-21T13:20:00;33.07;37.71
66871;DHT22;53780;44.998;9.926;2022-08-21T13:23:24;32.90;35.70
66871;DHT22;53780;44.998;9.926;2022-08-21T13:26:29;32.74;37.33
66871;DHT22;53780;44.998;9.926;2022-08-21T13:29:33;32.15;36.87
66871;DHT22;53780;44.998;9.926;2022-08-21T13:32:47;32.09;37.12
66871;DHT22;53780;44.998;9.926;2022-08-21T13:36:11;32.04;38.02
66871;DHT22;53780;44.998;9.926;2022-08-21T13:39:18;32.19;38.46
66871;DHT22;53780;44.998;9.926;2022-08-21T13:42:23;32.02;37.28
66871;DHT22;53780;44.998;9.926;2022-08-21T13:45:32;31.98;38.38
66871;DHT22;53780;44.998;9.926;2022-08-21T13:48:37;32.05;37.82
66871;DHT22;53780;44.998;9.926;2022-08-21T13:51:42;32.08;40.03
66871;DHT22;53780;44.998;9.926;2022-08-21T13:55:00;32.23;39.39
66871;DHT22;53780;44.998;9.926;2022-08-21T13:58:05;32.23;37.83
66871;DHT22;53780;44.998;9.926;2022-08-21T14:04:31;32.06;39.77
66871;DHT22;53780;44.998;9.926;2022-08-21T14:07:38;32.15;38.71
66871;DHT22;53780;44.998;9.926;2022-08-21T14:10:50;32.22;38.22
66871;DHT22;53780;44.998;9.926;2022-08-21T14:14:01;32.22;38.09
66871;DHT22;53780;44.998;9.926;2022-08-21T14:17:13;32.32;39.19
66871;DHT22;53780;44.998;9.926;2022-08-21T14:20:33;32.19;37.34
66871;DHT22;53780;44.998;9.926;2022-08-21T14:23:37;32.04;37.15
66871;DHT22;53780;44.998;9.926;2022-08-21T14:26:52;31.92;38.35
66871;DHT22;53780;44.998;9.926;2022-08-21T14:30:20;31.74;38.35
66871;DHT22;53780;44.998;9.926;2022-08-21T14:33:28;31.84;38.46
66871;DHT22;53780;44.998;9.926;2022-08-21T14:36:32;31.81;37.97
66871;DHT22;53780;44.998;9.926;2022-08-21T14:39:36;31.75;38.10
66871;DHT22;53780;44.998;9.926;2022-08-21T14:42:41;31.78;38.73
66871;DHT22;53780;44.998;9.926;2022-08-21T14:45:45;31.80;37.68
66871;DHT22;53780;44.998;9.926;2022-08-21T14:48:49;31.77;37.89
66871;DHT22;53780;44.998;9.926;2022-08-21T14:51:56;31.77;37.07
66871;DHT22;53780;44.998;9.926;2022-08-21T14:55:00;31.78;39.56
66871;DHT22;53780;44.998;9.926;2022-08-21T14:58:04;31.58;36.74
66871;DHT22;53780;44.998;9.926;2022-08-21T15:01:10;31.73;38.22
66871;DHT22;53780;44.998;9.926;2022-08-21T15:04:15;31.74;37.67
66871;DHT22;53780;44.998;9.926;2022-08-21T15:07:19;31.75;37.22
66871;DHT22;53780;44.998;9.926;2022-08-21T15:10:23;31.73;37.42
66871;DHT22;53780;44.998;9.926;2022-08-21T15:13:28;31.74;37.38
66871;DHT22;53780;44.998;9.926;2022-08-21T15:16:33;31.75;36.92
66871;DHT22;53780;44.998;9.926;2022-08-21T15:19:37;31.74;37.46
66871;DHT22;53780;44.998;9.926;2022-08-21T15:22:41;31.71;36.69
66871;DHT22;53780;44.998;9.926;2022-08-21T15:25:46;31.67;36.81
66871;DHT22;53780;44.998;9.926;2022-08-21T15:28:51;31.67;37.35
66871;DHT22;53780;44.998;9.926;2022-08-21T15:35:19;31.68;36.13
66871;DHT22;53780;44.998;9.926;2022-08-21T15:38:23;31.68;36.95
66871;DHT22;53780;44.998;9.926;2022-08-21T15:41:27;31.66;36.67
66871;DHT22;53780;44.998;9.926;2022-08-21T15:44:32;31.68;36.49
66871;DHT22;53780;44.998;9.926;2022-08-21T15:47:37;31.67;36.28
66871;DHT22;53780;44.998;9.926;2022-08-21T15:50:41;31.68;36.42
66871;DHT22;53780;44.998;9.926;2022-08-21T15:53:45;31.63;36.34
66871;DHT22;53780;44.998;9.926;2022-08-21T15:56:50;31.67;35.91
66871;DHT22;53780;44.998;9.926;2022-08-21T16:00:00;31.70;36.10
66871;DHT22;53780;44.998;9.926;2022-08-21T16:03:16;31.56;35.79
66871;DHT22;53780;44.998;9.926;2022-08-21T16:06:22;31.50;36.48
66871;DHT22;53780;44.998;9.926;2022-08-21T16:09:26;31.49;38.52
66871;DHT22;53780;44.998;9.926;2022-08-21T16:12:34;31.46;36.51
66871;DHT22;53780;44.998;9.926;2022-08-21T16:15:39;31.44;36.52
66871;DHT22;53780;44.998;9.926;2022-08-21T16:18:44;31.39;36.42
66871;DHT22;53780;44.998;9.926;2022-08-21T16:21:48;31.37;37.88
66871;DHT22;53780;44.998;9.926;2022-08-21T16:24:52;31.29;37.56
66871;DHT22;53780;44.998;9.926;2022-08-21T16:27:58;31.30;37.57
66871;DHT22;53780;44.998;9.926;2022-08-21T16:31:03;31.31;36.83
66871;DHT22;53780;44.998;9.926;2022-08-21T16:34:12;31.36;37.47
66871;DHT22;53780;44.998;9.926;2022-08-21T16:37:18;31.25;38.78
66871;DHT22;53780;44.998;9.926;2022-08-21T16:40:22;31.18;37.92
66871;DHT22;53780;44.998;9.926;2022-08-21T16:43:28;31.15;38.13
66871;DHT22;53780;44.998;9.926;2022-08-21T16:46:35;31.19;38.18
66871;DHT22;53780;44.998;9.926;2022-08-21T16:49:40;31.13;37.12
66871;DHT22;53780;44.998;9.926;2022-08-21T16:52:44;31.18;38.22
66871;DHT22;53780;44.998;9.926;2022-08-21T16:55:50;31.16;37.36
66871;DHT22;53780;44.998;9.926;2022-08-21T16:58:55;31.16;37.05
66871;DHT22;53780;44.998;9.926;2022-08-21T17:02:00;31.15;37.22
66871;DHT22;53780;44.998;9.926;2022-08-21T17:05:06;31.12;37.01
66871;DHT22;53780;44.998;9.926;2022-08-21T17:08:10;31.12;37.70
66871;DHT22;53780;44.998;9.926;2022-08-21T17:11:27;31.11;38.80
66871;DHT22;53780;44.998;9.926;2022-08-21T17:14:32;31.05;37.17
66871;DHT22;53780;44.998;9.926;2022-08-21T17:17:37;31.05;37.46
66871;DHT22;53780;44.998;9.926;2022-08-21T17:20:41;31.00;36.47
66871;DHT22;53780;44.998;9.926;2022-08-21T17:23:46;30.96;37.17
66871;DHT22;53780;44.998;9.926;2022-08-21T17:26:51;30.96;37.25
66871;DHT22;53780;44.998;9.926;2022-08-21T17:29:56;30.96;36.72
66871;DHT22;53780;44.998;9.926;2022-08-21T17:33:00;30.93;37.26
66871;DHT22;53780;44.998;9.926;2022-08-21T17:36:06;30.86;37.12
66871;DHT22;53780;44.998;9.926;2022-08-21T17:39:11;30.75;39.06
66871;DHT22;53780;44.998;9.926;2022-08-21T17:42:16;30.64;39.71
66871;DHT22;53780;44.998;9.926;2022-08-21T17:45:20;30.55;39.58
66871;DHT22;53780;44.998;9.926;2022-08-21T17:48:24;30.48;40.24
66871;DHT22;53780;44.998;9.926;2022-08-21T17:51:28;30.34;40.29
66871;DHT22;53780;44.998;9.926;2022-08-21T17:54:33;30.27;41.24
66871;DHT22;53780;44.998;9.926;2022-08-21T17:57:39;30.14;42.55
66871;DHT22;53780;44.998;9.926;2022-08-21T18:00:44;30.02;42.68
66871;DHT22;53780;44.998;9.926;2022-08-21T18:03:48;29.92;42.21
66871;DHT22;53780;44.998;9.926;2022-08-21T18:06:52;29.86;42.16
66871;DHT22;53780;44.998;9.926;2022-08-21T18:09:56;29.83;42.27
66871;DHT22;53780;44.998;9.926;2022-08-21T18:13:02;29.78;42.06
66871;DHT22;53780;44.998;9.926;2022-08-21T18:16:07;29.75;42.35
66871;DHT22;53780;44.998;9.926;2022-08-21T18:19:12;29.69;42.24
66871;DHT22;53780;44.998;9.926;2022-08-21T18:22:18;29.66;42.51
66871;DHT22;53780;44.998;9.926;2022-08-21T18:25:22;29.65;42.85
66871;DHT22;53780;44.998;9.926;2022-08-21T18:28:27;29.58;43.28
66871;DHT22;53780;44.998;9.926;2022-08-21T18:31:32;29.51;43.58
66871;DHT22;53780;44.998;9.926;2022-08-21T18:34:39;29.44;43.65
66871;DHT22;53780;44.998;9.926;2022-08-21T18:37:44;29.39;43.64
66871;DHT22;53780;44.998;9.926;2022-08-21T18:40:50;29.37;43.65
66871;DHT22;53780;44.998;9.926;2022-08-21T18:43:56;29.30;43.36
66871;DHT22;53780;44.998;9.926;2022-08-21T18:47:04;29.26;43.70
66871;DHT22;53780;44.998;9.926;2022-08-21T18:50:10;29.18;43.80
66871;DHT22;53780;44.998;9.926;2022-08-21T18:53:15;29.08;46.20
66871;DHT22;53780;44.998;9.926;2022-08-21T18:56:20;28.88;47.00
66871;DHT22;53780;44.998;9.926;2022-08-21T18:59:26;28.73;47.34
66871;DHT22;53780;44.998;9.926;2022-08-21T19:02:30;28.63;44.96
66871;DHT22;53780;44.998;9.926;2022-08-21T19:05:35;28.66;45.77
66871;DHT22;53780;44.998;9.926;2022-08-21T19:08:39;28.53;48.80
66871;DHT22;53780;44.998;9.926;2022-08-21T19:11:43;28.38;47.85
66871;DHT22;53780;44.998;9.926;2022-08-21T19:14:47;28.17;47.76
66871;DHT22;53780;44.998;9.926;2022-08-21T19:17:52;28.11;46.68
66871;DHT22;53780;44.998;9.926;2022-08-21T19:20:57;28.20;46.52
66871;DHT22;53780;44.998;9.926;2022-08-21T19:24:01;28.24;46.06
66871;DHT22;53780;44.998;9.926;2022-08-21T19:27:05;28.25;46.02
66871;DHT22;53780;44.998;9.926;2022-08-21T19:30:10;28.28;46.27
66871;DHT22;53780;44.998;9.926;2022-08-21T19:33:23;28.27;46.59
66871;DHT22;53780;44.998;9.926;2022-08-21T19:36:29;28.21;46.38
66871;DHT22;53780;44.998;9.926;2022-08-21T19:39:34;28.14;46.51
66871;DHT22;53780;44.998;9.926;2022-08-21T19:42:41;28.11;46.35
66871;DHT22;53780;44.998;9.926;2022-08-21T19:45:46;28.04;46.40
66871;DHT22;53780;44.998;9.926;2022-08-21T19:48:52;28.01;46.81
66871;DHT22;53780;44.998;9.926;2022-08-21T19:51:56;27.97;47.58
66871;DHT22;53780;44.998;9.926;2022-08-21T19:55:00;27.94;47.83
66871;DHT22;53780;44.998;9.926;2022-08-21T19:58:05;27.87;48.42
66871;DHT22;53780;44.998;9.926;2022-08-21T20:01:10;27.82;49.22
66871;DHT22;53780;44.998;9.926;2022-08-21T20:04:14;27.66;55.32
66871;DHT22;53780;44.998;9.926;2022-08-21T20:07:18;27.30;53.99
66871;DHT22;53780;44.998;9.926;2022-08-21T20:10:22;27.12;54.75
66871;DHT22;53780;44.998;9.926;2022-08-21T20:13:29;27.08;55.55
66871;DHT22;53780;44.998;9.926;2022-08-21T20:16:36;27.01;55.71
66871;DHT22;53780;44.998;9.926;2022-08-21T20:19:42;26.97;56.41
66871;DHT22;53780;44.998;9.926;2022-08-21T20:22:46;26.95;57.05
66871;DHT22;53780;44.998;9.926;2022-08-21T20:25:50;26.86;58.25
66871;DHT22;53780;44.998;9.926;2022-08-21T20:28:54;26.63;60.22
66871;DHT22;53780;44.998;9.926;2022-08-21T20:31:58;26.46;61.23
66871;DHT22;53780;44.998;9.926;2022-08-21T20:35:04;26.29;62.12
66871;DHT22;53780;44.998;9.926;2022-08-21T20:38:08;26.25;61.79
66871;DHT22;53780;44.998;9.926;2022-08-21T20:41:13;26.26;67.23
66871;DHT22;53780;44.998;9.926;2022-08-21T20:44:18;26.08;66.85
66871;DHT22;53780;44.998;9.926;2022-08-21T20:47:23;25.92;62.73
66871;DHT22;53780;44.998;9.926;2022-08-21T20:50:27;25.90;64.67
66871;DHT22;53780;44.998;9.926;2022-08-21T20:54:15;25.73;65.49
